Time;durP1;ratioP1;P1;durP2;ratioP2;P2;SDS_P1;SDS_P2;PMS_P1;PMS_P2;Temp;Humidity;BMP_temperature;BMP_pressure;BME280_temperature;BME280_humidity;BME280_pressure;Samples;Min_cycle;Max_cycle;Signal;HPM_P1;HPM_P2
2023/04/21 00:03:07;;;;;;;;;;;14.90;53.50;;;13.73;55.08;101647.72;12254772;19;19975;-83
2023/04/21 00:07:08;;;;;;;;;;;14.90;53.60;;;13.73;55.03;101639.84;12257372;19;19914;-83
2023/04/21 00:11:10;;;;;;;;;;;15.00;53.50;;;13.86;55.12;101655.78;12254424;19;19915;-83
2023/04/21 00:15:11;;;;;;;;;;;15.10;53.40;;;13.65;55.04;101606.13;12253744;19;19919;-84
2023/04/21 00:19:14;;;;;;;;;;;15.10;53.30;;;13.87;55.15;101639.91;12257337;19;19927;-84
2023/04/21 00:23:16;;;;;;;;;;;15.10;53.20;;;13.99;54.99;101658.56;12250162;19;19907;-83
2023/04/21 00:27:17;;;;;;;;;;;15.20;53.20;;;13.93;55.06;101649.25;12255431;19;19956;-84
2023/04/21 00:31:19;;;;;;;;;;;15.20;53.20;;;13.75;55.01;101613.50;12251446;19;20004;-83
2023/04/21 00:35:20;;;;;;;;;;;15.20;53.10;;;13.87;55.00;101628.56;12254847;19;19941;-84
2023/04/21 00:39:22;;;;;;;;;;;15.20;53.00;;;13.99;55.12;101648.94;12253430;19;19915;-84
2023/04/21 00:43:26;;;;;;;;;;;15.20;53.00;;;13.82;55.00;101620.94;12251470;19;20303;-83
2023/04/21 00:47:29;;;;;;;;;;;15.20;53.00;;;13.84;55.12;101631.38;12256382;19;19919;-85
2023/04/21 00:51:33;;;;;;;;;;;15.10;53.00;;;13.83;55.08;101627.91;12250408;19;19951;-84
2023/04/21 00:55:35;;;;;;;;;;;15.10;53.00;;;13.85;55.21;101631.31;12252911;19;19922;-84
2023/04/21 00:59:37;;;;;;;;;;;15.10;52.90;;;13.83;54.99;101629.69;12252890;19;19930;-83
2023/04/21 01:03:40;;;;;;;;;;;15.10;52.90;;;13.81;55.08;101634.16;12252592;19;19929;-84
2023/04/21 01:07:42;;;;;;;;;;;15.00;52.80;;;13.67;55.06;101614.75;12253080;19;19970;-84
2023/04/21 01:12:04;;;;;;;;;;;15.00;52.70;;;13.71;55.04;101636.44;12250355;19;20337;-83
2023/04/21 01:16:15;;;;;;;;;;;15.00;52.70;;;13.51;55.19;101600.78;12249881;19;20370;-83
2023/04/21 01:20:16;;;;;;;;;;;14.90;52.70;;;13.64;55.07;101629.84;12251006;19;19919;-84
2023/04/21 01:24:18;;;;;;;;;;;14.90;52.80;;;13.61;55.00;101620.34;12244767;19;19930;-83
2023/04/21 01:28:21;;;;;;;;;;;14.90;52.70;;;13.67;55.11;101638.38;12252584;19;19910;-84
2023/04/21 01:32:26;;;;;;;;;;;14.90;52.70;;;13.53;54.90;101613.78;12247643;19;20008;-84
2023/04/21 01:36:27;;;;;;;;;;;14.80;52.60;;;13.53;54.99;101622.53;12250988;19;19943;-83
2023/04/21 01:40:29;;;;;;;;;;;14.80;52.60;;;13.43;55.04;101610.81;12250515;19;19915;-84
2023/04/21 01:44:31;;;;;;;;;;;14.70;52.60;;;13.47;54.98;101613.22;12247893;19;19935;-83
2023/04/21 01:48:33;;;;;;;;;;;14.70;52.60;;;13.45;55.05;101622.09;12250898;19;20338;-84
2023/04/21 01:52:34;;;;;;;;;;;14.70;52.60;;;13.41;54.90;101624.00;12248061;19;19931;-83
2023/04/21 01:56:36;;;;;;;;;;;14.60;52.50;;;13.31;54.91;101617.53;12249450;19;19914;-84
2023/04/21 02:00:38;;;;;;;;;;;14.60;52.50;;;13.22;54.87;101616.22;12249807;19;20338;-83
2023/04/21 02:04:40;;;;;;;;;;;14.60;52.50;;;13.19;54.97;101619.00;12246705;19;20250;-83
2023/04/21 02:08:41;;;;;;;;;;;14.50;52.40;;;13.17;54.97;101615.63;12248640;19;19922;-84
2023/04/21 02:12:43;;;;;;;;;;;14.40;52.40;;;12.92;55.04;101575.88;12248165;19;19939;-83
2023/04/21 02:16:45;;;;;;;;;;;14.40;52.50;;;12.90;54.98;101568.06;12249166;19;19997;-83
2023/04/21 02:20:47;;;;;;;;;;;14.40;52.50;;;13.01;55.00;101597.19;12249172;19;20358;-83
2023/04/21 02:24:49;;;;;;;;;;;14.30;52.40;;;12.85;55.03;101575.31;12245451;19;19944;-84
2023/04/21 02:28:50;;;;;;;;;;;14.30;52.40;;;13.00;54.96;101602.53;12247213;19;19921;-84
2023/04/21 02:32:52;;;;;;;;;;;14.30;52.50;;;12.96;54.92;101604.47;12244055;19;20291;-84
2023/04/21 02:36:54;;;;;;;;;;;14.20;52.40;;;12.95;54.99;101612.41;12247629;19;19927;-83
2023/04/21 02:40:56;;;;;;;;;;;14.20;52.30;;;12.85;54.94;101601.53;12248187;19;19918;-84
2023/04/21 02:44:58;;;;;;;;;;;14.10;52.30;;;12.76;54.75;101609.88;12244612;19;19915;-83
2023/04/21 02:49:00;;;;;;;;;;;14.00;52.30;;;12.65;54.94;101599.91;12246779;19;19930;-83
2023/04/21 02:53:01;;;;;;;;;;;13.90;52.30;;;12.25;54.77;101544.25;12244056;19;19915;-84
2023/04/21 02:57:03;;;;;;;;;;;13.80;52.30;;;12.59;55.01;101606.31;12246833;19;20275;-84
2023/04/21 03:01:05;;;;;;;;;;;13.80;52.30;;;12.53;55.01;101617.09;12244735;19;19923;-85
2023/04/21 03:05:08;;;;;;;;;;;13.70;52.30;;;12.29;54.92;101579.00;12245059;19;19943;-84
2023/04/21 03:09:10;;;;;;;;;;;13.70;52.30;;;12.42;54.93;101602.81;12245542;19;19918;-83
2023/04/21 03:13:11;;;;;;;;;;;13.60;52.30;;;12.30;55.22;101588.56;12241931;19;19923;-83
2023/04/21 03:17:13;;;;;;;;;;;13.60;52.30;;;12.22;54.97;101586.31;12245516;19;19939;-84
2023/04/21 03:21:15;;;;;;;;;;;13.50;52.30;;;12.25;54.82;101601.03;12245273;19;19994;-83
2023/04/21 03:25:16;;;;;;;;;;;13.50;52.40;;;12.12;54.82;101596.38;12243075;19;19923;-84
2023/04/21 03:29:18;;;;;;;;;;;13.40;52.30;;;12.00;54.81;101580.41;12244609;19;19918;-84
2023/04/21 03:33:20;;;;;;;;;;;13.60;52.40;;;11.99;54.83;101592.66;12240700;19;20378;-84
2023/04/21 03:37:21;;;;;;;;;;;13.30;52.40;;;12.04;55.06;101600.28;12246326;19;19944;-83
2023/04/21 03:41:23;;;;;;;;;;;13.20;52.40;;;11.76;54.92;101551.81;12245286;19;19918;-84
2023/04/21 03:45:25;;;;;;;;;;;13.20;52.50;;;11.93;55.02;101590.31;12246253;19;19907;-84
2023/04/21 03:49:27;;;;;;;;;;;13.20;52.50;;;11.91;54.93;101598.25;12243544;19;19936;-85
2023/04/21 03:53:28;;;;;;;;;;;13.10;52.40;;;11.76;54.84;101577.13;12241836;19;19945;-83
2023/04/21 03:57:30;;;;;;;;;;;13.10;52.40;;;11.75;54.83;101594.63;12249741;19;19971;-84
2023/04/21 04:01:35;;;;;;;;;;;13.00;52.40;;;11.62;54.81;101583.00;12257115;19;20357;-84
2023/04/21 04:05:37;;;;;;;;;;;13.00;52.40;;;11.60;55.08;101588.28;12258022;19;19951;-83
2023/04/21 04:09:39;;;;;;;;;;;12.90;52.40;;;11.53;54.87;101581.66;12253955;19;20354;-84
2023/04/21 04:13:40;;;;;;;;;;;13.10;52.40;;;11.22;55.01;101543.81;12251712;19;19922;-84
2023/04/21 04:17:42;;;;;;;;;;;12.80;52.40;;;11.31;55.12;101573.91;12256711;19;20325;-84
2023/04/21 04:21:43;;;;;;;;;;;12.70;52.40;;;11.38;55.03;101598.88;12249980;19;19926;-84
2023/04/21 04:25:47;;;;;;;;;;;12.70;52.40;;;11.36;54.98;101602.47;12255564;19;19941;-84
2023/04/21 04:29:48;;;;;;;;;;;12.80;52.50;;;11.39;55.05;101621.50;12254108;19;19918;-84
2023/04/21 04:33:51;;;;;;;;;;;12.60;52.50;;;11.34;54.90;101607.78;12249014;19;19958;-85
2023/04/21 04:37:53;;;;;;;;;;;12.60;52.60;;;11.05;54.95;101570.69;12257693;19;19940;-84
2023/04/21 04:41:55;;;;;;;;;;;12.60;52.70;;;10.93;54.87;101552.06;12254979;19;19919;-84
2023/04/21 04:45:56;;;;;;;;;;;12.50;52.70;;;11.20;55.21;101608.38;12246324;19;19918;-84
2023/04/21 04:49:57;;;;;;;;;;;12.50;52.70;;;11.33;54.99;101624.38;12250954;19;19931;-84
2023/04/21 04:53:59;;;;;;;;;;;12.50;52.80;;;11.24;55.11;101615.19;12252461;19;19915;-84
2023/04/21 04:58:01;;;;;;;;;;;12.60;52.90;;;11.27;55.32;101628.13;12254801;19;19941;-84
2023/04/21 05:02:03;;;;;;;;;;;12.50;52.90;;;11.32;55.33;101621.84;12252461;19;19939;-85
2023/04/21 05:06:05;;;;;;;;;;;12.70;53.30;;;11.28;55.33;101610.66;12255148;19;19962;-84
2023/04/21 05:10:07;;;;;;;;;;;12.60;53.30;;;11.43;55.33;101636.16;12251756;19;19915;-84
2023/04/21 05:14:08;;;;;;;;;;;12.60;53.20;;;11.46;55.35;101622.09;12249535;19;19955;-84
2023/04/21 05:18:09;;;;;;;;;;;12.70;53.50;;;11.29;55.33;101591.47;12256501;19;20364;-84
2023/04/21 05:22:11;;;;;;;;;;;12.70;53.40;;;11.55;55.39;101626.06;12257582;19;19966;-85
2023/04/21 05:26:12;;;;;;;;;;;12.80;53.40;;;11.62;55.56;101622.25;12255668;19;19925;-84
2023/04/21 05:30:14;;;;;;;;;;;12.80;53.20;;;11.58;55.38;101599.75;12252086;19;19926;-84
2023/04/21 05:34:16;;;;;;;;;;;13.00;53.30;;;11.73;55.65;101622.59;12241521;19;20585;-84
2023/04/21 05:38:17;;;;;;;;;;;13.20;53.30;;;11.67;55.40;101604.59;12254063;19;20261;-83
2023/04/21 05:42:19;;;;;;;;;;;13.10;53.20;;;11.82;55.37;101616.94;12246716;19;20614;-84
2023/04/21 05:46:20;;;;;;;;;;;13.20;53.10;;;11.99;55.46;101631.03;12246252;19;19911;-84
2023/04/21 05:50:22;;;;;;;;;;;13.20;53.00;;;12.02;55.52;101620.47;12254060;19;19921;-85
2023/04/21 05:54:24;;;;;;;;;;;13.30;53.00;;;11.83;55.51;101582.03;12254494;19;19911;-84
2023/04/21 05:58:25;;;;;;;;;;;13.40;53.00;;;12.22;55.60;101633.44;12253026;19;20379;-85
2023/04/21 06:02:27;;;;;;;;;;;13.50;52.90;;;12.18;55.67;101596.09;12255352;19;19930;-84
2023/04/21 06:06:29;;;;;;;;;;;13.60;53.00;;;12.42;55.60;101608.06;12252500;19;19915;-85
2023/04/21 06:10:31;;;;;;;;;;;13.80;53.10;;;12.59;55.63;101618.56;12252207;19;19926;-84
2023/04/21 06:14:32;;;;;;;;;;;13.90;53.00;;;12.71;55.62;101615.31;12246993;19;19907;-84
2023/04/21 06:18:34;;;;;;;;;;;14.00;52.70;;;12.62;55.56;101571.25;12249918;19;19911;-85
2023/04/21 06:22:36;;;;;;;;;;;14.10;52.60;;;12.96;55.56;101611.47;12245649;19;19919;-83
2023/04/21 06:26:37;;;;;;;;;;;14.30;52.20;;;13.09;55.64;101611.69;12249098;19;20333;-84
2023/04/21 06:30:40;;;;;;;;;;;14.40;52.00;;;13.24;55.56;101619.63;12239834;19;20286;-84
2023/04/21 06:34:41;;;;;;;;;;;14.50;52.40;;;13.38;55.57;101604.97;12245752;19;19915;-85
2023/04/21 06:38:43;;;;;;;;;;;14.70;52.60;;;13.43;55.68;101597.72;12248283;19;19974;-85
2023/04/21 06:42:44;;;;;;;;;;;14.80;52.50;;;13.54;55.50;101600.59;12244298;19;19911;-85
2023/04/21 06:46:46;;;;;;;;;;;14.90;51.50;;;13.58;55.61;101591.63;12248804;19;19974;-85
2023/04/21 06:50:47;;;;;;;;;;;15.00;52.20;;;13.60;55.57;101571.41;12246362;19;20352;-85
2023/04/21 06:54:49;;;;;;;;;;;15.20;52.20;;;13.88;55.43;101593.50;12241545;19;19934;-84
2023/04/21 06:58:51;;;;;;;;;;;15.30;51.40;;;13.99;55.56;101587.66;12246929;19;19922;-84
2023/04/21 07:02:52;;;;;;;;;;;15.40;52.20;;;14.04;55.37;101586.50;12244415;19;19927;-84
2023/04/21 07:06:54;;;;;;;;;;;15.50;50.10;;;13.99;55.36;101549.13;12249263;19;19922;-85
2023/04/21 07:10:56;;;;;;;;;;;15.60;50.40;;;14.34;55.40;101601.47;12246594;19;19935;-85
2023/04/21 07:14:58;;;;;;;;;;;15.60;50.70;;;14.33;55.37;101578.72;12245214;19;19940;-85
2023/04/21 07:18:59;;;;;;;;;;;15.80;51.00;;;14.53;55.37;101594.25;12246079;19;19932;-85
2023/04/21 07:23:01;;;;;;;;;;;15.90;51.40;;;14.63;55.24;101585.81;12245658;19;19932;-85
2023/04/21 07:27:02;;;;;;;;;;;16.00;51.40;;;14.76;55.32;101589.41;12247057;19;19926;-85
2023/04/21 07:31:04;;;;;;;;;;;16.10;51.10;;;14.70;55.18;101556.44;12245538;19;20404;-84
2023/04/21 07:35:06;;;;;;;;;;;16.20;50.40;;;14.85;55.32;101554.66;12257609;19;20332;-85
2023/04/21 07:39:08;;;;;;;;;;;16.40;51.60;;;15.12;55.38;101570.59;12259511;19;20268;-85
2023/04/21 07:43:10;;;;;;;;;;;16.50;51.50;;;15.40;55.27;101582.06;12258365;19;20410;-85
2023/04/21 07:47:12;;;;;;;;;;;16.70;51.90;;;15.53;55.30;101577.72;12263810;19;19915;-84
2023/04/21 07:51:16;;;;;;;;;;;16.90;51.90;;;15.73;55.20;101568.59;12261162;19;19919;-85
2023/04/21 07:55:18;;;;;;;;;;;17.00;50.80;;;15.76;55.32;101552.59;12259977;19;19911;-86
2023/04/21 07:59:19;;;;;;;;;;;17.20;51.30;;;16.14;55.27;101583.53;12263839;19;19927;-86
2023/04/21 08:03:21;;;;;;;;;;;17.50;50.80;;;16.26;55.05;101584.53;12263810;19;19911;-85
2023/04/21 08:07:22;;;;;;;;;;;17.70;51.20;;;16.46;55.22;101577.94;12264260;19;19928;-85
2023/04/21 08:11:24;;;;;;;;;;;17.80;50.60;;;16.62;55.08;101572.50;12262796;19;19911;-86
2023/04/21 08:15:25;;;;;;;;;;;18.00;47.90;;;16.77;55.11;101566.22;12264486;19;19914;-86
2023/04/21 08:19:27;;;;;;;;;;;18.20;49.40;;;16.98;54.92;101564.75;12261942;19;19926;-85
2023/04/21 08:23:29;;;;;;;;;;;18.40;49.00;;;17.02;54.72;101546.91;12259343;19;19915;-86
2023/04/21 08:27:31;;;;;;;;;;;18.50;49.40;;;17.35;54.98;101574.56;12259131;19;19922;-86
2023/04/21 08:31:32;;;;;;;;;;;18.70;48.60;;;17.32;54.66;101538.66;12261455;19;19915;-85
2023/04/21 08:35:35;;;;;;;;;;;18.90;47.90;;;17.54;54.70;101545.03;12264822;19;20329;-86
2023/04/21 08:39:36;;;;;;;;;;;18.90;48.60;;;17.74;54.53;101541.81;12261550;19;19911;-86
2023/04/21 08:43:38;;;;;;;;;;;19.20;48.80;;;17.98;54.16;101549.78;12247412;19;19956;-86
2023/04/21 08:47:40;;;;;;;;;;;19.40;45.00;;;18.17;54.33;101561.63;12255027;19;20567;-85
2023/04/21 08:51:42;;;;;;;;;;;19.50;48.70;;;18.14;54.08;101539.75;12253194;19;19922;-85
2023/04/21 08:55:44;;;;;;;;;;;19.70;48.00;;;18.42;54.16;101564.16;12255685;19;19943;-85
2023/04/21 08:59:46;;;;;;;;;;;19.80;49.30;;;18.63;54.26;101566.13;12256132;19;20263;-84
2023/04/21 09:03:47;;;;;;;;;;;20.00;48.30;;;18.73;53.91;101564.47;12253702;19;19925;-85
2023/04/21 09:07:48;;;;;;;;;;;20.10;49.70;;;18.73;54.07;101551.25;12252040;19;19923;-84
2023/04/21 09:11:56;;;;;;;;;;;20.30;49.50;;;18.94;54.12;101559.38;12249441;19;19940;-86
2023/04/21 09:15:58;;;;;;;;;;;20.40;49.10;;;19.02;54.04;101541.09;12253869;19;19919;-83
2023/04/21 09:20:16;;;;;;;;;;;20.50;46.30;;;19.29;53.96;101551.31;12254483;19;19923;-86
2023/04/21 09:24:18;;;;;;;;;;;20.70;44.70;;;19.16;53.82;101500.28;12248399;19;19934;-86
2023/04/21 09:28:20;;;;;;;;;;;20.80;47.70;;;19.59;54.10;101548.03;12255734;19;19911;-85
2023/04/21 09:32:22;;;;;;;;;;;21.00;49.30;;;19.39;53.79;101486.06;12251327;19;19933;-86
2023/04/21 09:36:25;;;;;;;;;;;21.20;49.40;;;19.76;53.76;101519.38;12257586;19;19922;-85
2023/04/21 09:40:30;;;;;;;;;;;21.30;47.60;;;20.06;53.25;101542.53;12253715;19;20292;-85
2023/04/21 09:44:32;;;;;;;;;;;21.50;46.40;;;20.12;53.44;101534.06;12249726;19;19910;-85
2023/04/21 09:48:34;;;;;;;;;;;21.60;48.30;;;20.25;53.06;101542.69;12253049;19;19949;-85
2023/04/21 09:52:37;;;;;;;;;;;21.70;47.30;;;20.38;53.16;101533.69;12252796;19;19940;-85
2023/04/21 09:56:41;;;;;;;;;;;21.80;47.40;;;20.46;53.19;101532.09;12252317;19;19914;-86
2023/04/21 10:00:43;;;;;;;;;;;21.90;45.90;;;20.61;52.77;101542.44;12255090;19;19918;-86
2023/04/21 10:04:44;;;;;;;;;;;22.00;48.20;;;20.68;53.07;101531.13;12248238;19;19929;-85
2023/04/21 10:08:46;;;;;;;;;;;22.10;41.30;;;20.75;52.40;101532.31;12253744;19;19919;-85
2023/04/21 10:12:48;;;;;;;;;;;22.10;46.10;;;20.69;52.45;101498.31;12247126;19;20382;-85
2023/04/21 10:17:16;;;;;;;;;;;22.30;45.40;;;20.94;52.37;101520.09;12245058;19;19932;-88
2023/04/21 10:21:20;;;;;;;;;;;22.30;48.30;;;21.05;52.11;101527.97;12248667;19;19921;-86
2023/04/21 10:25:22;;;;;;;;;;;22.40;46.00;;;20.99;52.17;101494.00;12247037;19;20334;-86
2023/04/21 10:29:33;;;;;;;;;;;22.50;44.50;;;21.24;51.69;101518.41;12246904;19;19984;-86
2023/04/21 10:33:34;;;;;;;;;;;22.50;40.40;;;21.18;52.14;101491.41;12248031;19;19922;-87
2023/04/21 10:37:36;;;;;;;;;;;22.60;42.80;;;21.16;51.57;101464.13;12243334;19;19926;-86
2023/04/21 10:41:38;;;;;;;;;;;22.60;38.50;;;21.31;51.28;101493.00;12246485;19;19911;-84
2023/04/21 10:45:40;;;;;;;;;;;22.70;42.60;;;21.43;51.06;101499.88;12253127;19;20357;-84
2023/04/21 10:49:41;;;;;;;;;;;22.80;43.10;;;21.44;51.34;101485.63;12246949;19;19933;-85
2023/04/21 10:53:43;;;;;;;;;;;22.80;42.60;;;21.15;50.79;101424.44;12239755;19;20389;-84
2023/04/21 10:57:45;;;;;;;;;;;22.90;45.10;;;21.49;50.61;101466.59;12252676;19;19917;-84
2023/04/21 11:01:47;;;;;;;;;;;22.90;43.70;;;21.48;50.99;101452.50;12248834;19;19915;-84
2023/04/21 11:10:06;;;;;;;;;;;23.00;42.30;;;21.68;50.88;101448.00;12220018;19;20351;-84
2023/04/21 11:14:08;;;;;;;;;;;23.10;43.10;;;21.79;50.70;101444.38;12261390;19;20321;-84
2023/04/21 11:18:10;;;;;;;;;;;23.20;41.60;;;22.04;50.31;101475.75;12250255;19;19923;-84
2023/04/21 11:22:11;;;;;;;;;;;23.20;41.30;;;22.00;50.49;101460.19;12261101;19;19911;-83
2023/04/21 11:26:13;;;;;;;;;;;23.30;40.90;;;22.18;50.08;101468.31;12261041;19;19947;-84
2023/04/21 11:30:15;;;;;;;;;;;23.40;43.70;;;22.21;50.27;101450.25;12261254;19;19914;-84
2023/04/21 11:34:20;;;;;;;;;;;23.50;44.30;;;22.20;49.96;101442.44;12262275;19;19918;-83
2023/04/21 11:38:23;;;;;;;;;;;23.60;43.60;;;22.30;50.26;101451.22;12259292;19;19919;-83
2023/04/21 11:42:25;;;;;;;;;;;23.60;41.10;;;22.31;49.93;101451.09;12264528;19;20267;-83
2023/04/21 11:46:27;;;;;;;;;;;23.60;43.00;;;22.24;49.65;101417.19;12262215;19;20286;-83
2023/04/21 11:50:31;;;;;;;;;;;23.60;41.40;;;22.38;49.89;101419.41;12262679;19;19926;-83
2023/04/21 11:54:33;;;;;;;;;;;23.60;38.70;;;22.44;49.38;101418.84;12259638;19;19923;-84
2023/04/21 11:58:35;;;;;;;;;;;23.80;42.50;;;22.53;49.12;101425.09;12254001;19;19930;-83
2023/04/21 12:02:37;;;;;;;;;;;23.70;39.70;;;22.61;48.85;101419.88;12257612;19;19917;-84
2023/04/21 12:06:38;;;;;;;;;;;23.80;40.00;;;22.60;48.90;101409.38;12256863;19;19950;-84
2023/04/21 12:10:44;;;;;;;;;;;23.90;40.00;;;22.58;48.78;101414.88;12256714;19;19914;-85
2023/04/21 12:14:46;;;;;;;;;;;23.90;42.50;;;22.66;49.23;101403.50;12255320;19;19943;-84
2023/04/21 12:18:48;;;;;;;;;;;23.90;42.70;;;22.72;48.62;101406.38;12247798;19;19922;-84
2023/04/21 12:22:49;;;;;;;;;;;24.00;42.80;;;22.68;48.70;101398.84;12257816;19;19938;-83
2023/04/21 12:26:51;;;;;;;;;;;23.90;41.70;;;22.66;48.62;101379.53;12253693;19;20250;-83
2023/04/21 12:30:52;;;;;;;;;;;24.00;42.10;;;22.59;48.64;101359.78;12253968;19;19919;-84
2023/04/21 12:34:54;;;;;;;;;;;24.00;40.80;;;22.77;48.78;101379.31;12257301;19;19922;-84
2023/04/21 12:38:56;;;;;;;;;;;24.00;40.30;;;22.63;48.05;101347.84;12247505;19;19919;-84
2023/04/21 12:42:58;;;;;;;;;;;24.00;36.40;;;22.85;48.24;101392.72;12249776;19;20277;-84
2023/04/21 12:47:02;;;;;;;;;;;24.00;41.30;;;22.85;48.25;101375.91;12235439;19;19947;-84
2023/04/21 12:51:04;;;;;;;;;;;24.10;41.30;;;22.83;47.83;101375.22;12252904;19;20345;-84
2023/04/21 12:55:06;;;;;;;;;;;24.10;38.30;;;22.84;47.61;101369.72;12256628;19;19918;-83
2023/04/21 12:59:09;;;;;;;;;;;24.00;38.80;;;22.90;47.60;101362.97;12256068;19;19907;-84
2023/04/21 13:03:10;;;;;;;;;;;24.10;42.00;;;22.88;47.36;101341.81;12258969;19;20267;-84
2023/04/21 13:07:12;;;;;;;;;;;24.10;37.50;;;22.84;47.15;101329.78;12260186;19;19919;-84
2023/04/21 13:11:14;;;;;;;;;;;24.20;39.10;;;23.04;47.27;101345.69;12261428;19;19903;-85
2023/04/21 13:15:15;;;;;;;;;;;24.20;36.30;;;22.93;46.38;101318.25;12261595;19;19922;-84
2023/04/21 13:19:16;;;;;;;;;;;24.20;34.90;;;22.78;46.44;101308.25;12252115;19;20308;-86
2023/04/21 13:23:18;;;;;;;;;;;24.20;38.80;;;23.07;46.21;101350.72;12255648;19;19932;-84
2023/04/21 13:27:20;;;;;;;;;;;24.20;39.60;;;22.90;46.29;101315.03;12252849;19;19910;-85
2023/04/21 13:31:21;;;;;;;;;;;24.20;39.60;;;23.09;46.19;101328.25;12250298;19;19914;-85
2023/04/21 13:35:22;;;;;;;;;;;24.20;37.90;;;23.16;46.47;101320.47;12247817;19;19959;-85
2023/04/21 13:39:25;;;;;;;;;;;24.30;40.20;;;23.25;46.13;101322.25;12250381;19;19931;-85
2023/04/21 13:43:27;;;;;;;;;;;24.30;41.20;;;23.15;46.27;101313.50;12252214;19;19911;-86
2023/04/21 13:47:32;;;;;;;;;;;24.40;35.10;;;23.00;45.77;101285.69;12248437;19;19941;-85
2023/04/21 13:51:33;;;;;;;;;;;24.40;35.90;;;23.03;45.70;101283.56;12253226;19;20249;-85
2023/04/21 13:55:35;;;;;;;;;;;24.30;39.50;;;23.11;45.94;101290.78;12253691;19;19914;-85
2023/04/21 13:59:36;;;;;;;;;;;24.40;34.90;;;23.25;45.85;101300.94;12246002;19;19986;-85
2023/04/21 14:03:38;;;;;;;;;;;24.40;33.40;;;23.26;45.44;101301.75;12251206;19;19915;-86
2023/04/21 14:07:41;;;;;;;;;;;24.40;36.30;;;23.09;45.25;101261.66;12251289;19;19911;-87
2023/04/21 14:11:42;;;;;;;;;;;24.30;33.60;;;23.24;45.34;101296.56;12251560;19;19923;-87
2023/04/21 14:15:44;;;;;;;;;;;24.30;39.50;;;23.10;45.14;101271.31;12254099;19;19950;-87
2023/04/21 14:19:46;;;;;;;;;;;24.30;39.70;;;23.22;45.16;101273.72;12248881;19;19933;-87
2023/04/21 14:23:47;;;;;;;;;;;24.30;38.70;;;23.14;45.38;101255.84;12253756;19;19922;-87
2023/04/21 14:27:49;;;;;;;;;;;24.30;36.60;;;23.19;44.96;101264.22;12247650;19;19923;-87
2023/04/21 14:31:52;;;;;;;;;;;24.30;32.40;;;23.22;44.53;101261.25;12250523;19;19925;-87
2023/04/21 14:35:53;;;;;;;;;;;24.30;34.90;;;23.22;44.43;101261.25;12250883;19;19919;-86
2023/04/21 14:39:55;;;;;;;;;;;24.30;39.40;;;23.09;44.21;101245.66;12241857;19;19982;-87
2023/04/21 14:43:58;;;;;;;;;;;24.30;40.30;;;23.22;44.31;101253.25;12245535;19;19922;-86
2023/04/21 14:47:59;;;;;;;;;;;24.30;36.80;;;23.12;44.29;101232.03;12245227;19;19919;-86
2023/04/21 14:52:02;;;;;;;;;;;24.30;35.60;;;23.24;44.32;101247.78;12248665;19;19922;-87
2023/04/21 14:56:04;;;;;;;;;;;24.30;33.40;;;23.16;44.01;101232.56;12242275;19;19931;-86
2023/04/21 15:00:06;;;;;;;;;;;24.30;36.70;;;23.11;43.93;101219.69;12250793;19;19914;-86
2023/04/21 15:04:08;;;;;;;;;;;24.30;37.60;;;23.10;44.14;101212.69;12246747;19;20557;-86
2023/04/21 15:08:10;;;;;;;;;;;24.20;37.20;;;23.05;44.09;101204.31;12246583;19;19939;-87
2023/04/21 15:12:12;;;;;;;;;;;24.20;36.50;;;23.16;43.93;101222.72;12247726;19;19933;-86
2023/04/21 15:16:14;;;;;;;;;;;24.20;36.40;;;23.24;43.63;101224.63;12249102;19;19911;-85
2023/04/21 15:20:15;;;;;;;;;;;24.30;38.20;;;23.26;43.95;101206.66;12248581;19;19970;-86
2023/04/21 15:24:17;;;;;;;;;;;24.20;35.20;;;23.10;43.40;101202.03;12245013;19;19978;-86
2023/04/21 15:28:18;;;;;;;;;;;24.20;34.00;;;23.20;43.82;101215.28;12238261;19;20356;-86
2023/04/21 15:32:20;;;;;;;;;;;24.20;37.70;;;23.16;43.25;101208.56;12243449;19;20400;-86
2023/04/21 15:36:21;;;;;;;;;;;24.20;38.30;;;23.07;43.36;101201.50;12241857;19;19921;-86
2023/04/21 15:40:23;;;;;;;;;;;24.20;38.90;;;23.08;43.15;101196.00;12242595;19;19927;-86
2023/04/21 15:44:25;;;;;;;;;;;24.20;36.60;;;22.89;43.53;101165.03;12239244;19;19922;-86
2023/04/21 15:48:26;;;;;;;;;;;24.20;37.50;;;23.03;43.30;101189.47;12232526;19;19919;-86
2023/04/21 15:52:28;;;;;;;;;;;24.10;38.10;;;22.87;43.18;101159.06;12237754;19;20039;-87
2023/04/21 15:56:29;;;;;;;;;;;24.10;36.00;;;22.96;43.24;101182.13;12252297;19;19921;-86
2023/04/21 16:00:30;;;;;;;;;;;24.10;37.90;;;22.99;43.31;101188.13;12246173;19;19922;-86
2023/04/21 16:04:32;;;;;;;;;;;24.00;38.30;;;22.77;42.82;101152.97;12246563;19;20253;-86
2023/04/21 16:08:33;;;;;;;;;;;24.00;34.80;;;22.94;43.08;101180.56;12248246;19;19923;-86
2023/04/21 16:12:34;;;;;;;;;;;24.00;35.00;;;22.90;43.08;101185.38;12247040;19;20008;-86
2023/04/21 16:16:36;;;;;;;;;;;23.90;37.20;;;22.84;43.03;101177.16;12254409;19;19927;-86
2023/04/21 16:20:37;;;;;;;;;;;23.90;35.50;;;22.72;42.80;101168.56;12250904;19;20008;-86
2023/04/21 16:24:40;;;;;;;;;;;23.80;33.80;;;22.66;42.59;101156.69;12247906;19;19971;-86
2023/04/21 16:28:41;;;;;;;;;;;23.80;36.80;;;22.73;42.46;101163.06;12247715;19;20302;-86
2023/04/21 16:32:43;;;;;;;;;;;23.70;39.90;;;22.41;42.47;101139.66;12249485;19;19990;-86
2023/04/21 16:36:44;;;;;;;;;;;23.70;38.40;;;22.59;42.34;101160.13;12250267;19;19919;-85
2023/04/21 16:40:45;;;;;;;;;;;23.60;34.50;;;22.52;42.44;101158.09;12246870;19;19911;-86
2023/04/21 16:44:47;;;;;;;;;;;23.60;36.10;;;22.44;42.53;101158.00;12247955;19;20407;-84
2023/04/21 16:48:49;;;;;;;;;;;23.50;34.50;;;22.38;42.16;101147.94;12250754;19;19915;-85
2023/04/21 16:52:51;;;;;;;;;;;23.40;36.40;;;22.10;42.44;101116.03;12251326;19;19934;-84
2023/04/21 16:56:53;;;;;;;;;;;23.40;37.20;;;22.13;42.20;101127.38;12253066;19;19923;-85
2023/04/21 17:00:54;;;;;;;;;;;23.30;35.10;;;22.10;42.21;101136.50;12253266;19;19910;-85
2023/04/21 17:04:56;;;;;;;;;;;23.20;38.30;;;22.06;42.40;101129.78;12250105;19;19943;-84
2023/04/21 17:09:00;;;;;;;;;;;23.20;36.30;;;22.08;42.05;101136.63;12250544;19;20247;-85
2023/04/21 17:13:03;;;;;;;;;;;23.10;36.30;;;22.07;42.01;101145.59;12249344;19;19944;-85
2023/04/21 17:17:05;;;;;;;;;;;23.10;37.30;;;21.92;42.16;101125.81;12248498;19;20410;-85
2023/04/21 17:21:06;;;;;;;;;;;23.00;36.90;;;21.97;41.96;101141.31;12250896;19;19922;-85
2023/04/21 17:25:08;;;;;;;;;;;23.00;36.70;;;21.84;42.27;101142.50;12249472;19;19939;-85
2023/04/21 17:29:10;;;;;;;;;;;22.90;36.90;;;;;;12246459;19;19939;-84
2023/04/21 17:33:11;;;;;;;;;;;22.80;37.80;;;21.75;41.98;101138.06;12245970;19;19915;-84
2023/04/21 17:37:13;;;;;;;;;;;22.70;38.00;;;21.77;42.15;101143.25;12247182;19;19919;-85
2023/04/21 17:41:14;;;;;;;;;;;22.70;38.40;;;21.61;42.40;101122.63;12257819;19;20280;-85
2023/04/21 17:45:16;;;;;;;;;;;22.70;38.00;;;21.60;42.31;101136.88;12253890;19;19915;-85
2023/04/21 17:49:18;;;;;;;;;;;22.60;37.70;;;21.58;41.97;101150.34;12248455;19;19949;-85
2023/04/21 17:53:20;;;;;;;;;;;22.50;38.20;;;21.56;42.07;101152.28;12244916;19;20289;-85
2023/04/21 17:57:34;;;;;;;;;;;22.50;38.90;;;21.49;42.13;101145.03;12236177;19;19922;-85
2023/04/21 18:02:08;;;;;;;;;;;22.40;38.30;;;21.15;42.15;101108.34;12238803;19;20358;-86
2023/04/21 18:06:10;;;;;;;;;;;22.30;38.80;;;21.25;42.10;101135.72;12247494;19;19919;-86
2023/04/21 18:10:12;;;;;;;;;;;22.30;39.30;;;21.20;41.84;101141.47;12248912;19;19935;-84
2023/04/21 18:14:14;;;;;;;;;;;22.20;38.90;;;21.11;42.00;101137.00;12248843;19;20030;-84